Onondaga, Michigan
Current Conditions -  °F | °C
As of 4:31 PM on Sunday 23 Nov 2014 (Local Time) from KTEW Reporting Station
Drizzle Drizzle  
Wind Chill: 11°   Ceiling: 6000
Heat Index: 11°   Visibility: 7mi
Dew Point:   Wind: 7mph
Humidity: 85%   Direction: 120°ESE
Pressure: 29.62"   Gusts: NA
Location:  42.44°N, 84.56°W
Report Text: KTEW 232131Z AUTO 12006KT 7SM -DZ SCT037 BKN060 OVC070 11/08 A2962 RMK AO2 T01060082
Loading
Personal Weather Stations






























Interactive Weather Map New forecast layout! Learn more

10-Day Weather Forecast

Advertisements
Track Severe Weather on mobile